»·PEaware :: AAL542 KLAS-KSAN

AAL542 :: KLAS-KSAN

FLIGHT INFORMATION

Flight Status: Arrived
Operator:
American Airlines
More flights by this operator :: More flights under this callsign
Pilot: Ben W. (5837)
Aircraft: AIRBUS A320
(A320)
More flights by this aircraft type
Origin: KLAS McCarran Intl
United States
Destination: KSAN San Diego Intl-Lindbergh
United States
More flights between these airports :: More routes between these airports
Route: +BOACH8 LVELL LUCKI1
File this flight plan on PilotEdge
Remarks:
Altitude:
(Current/Filed)
30,000ft
Speed:
(Current/Filed)
440kts
Departed: 04-May-18 05:18 PM
Arrived: 04-May-18 05:59 PM
Distance/Time
Traveled:
225nm/0:41
Distance/Time
To Go:
Arrived

Flight Plot

Page will automatically refresh every two minutes.

Flight plan parsing failed; only flown route is shown


Map Options




Map Legend


Flown Route
Filed Route
Departure Airport
Arrival Airport
Navaid (VOR, NDB)
Fix

Horizontal Profiles

Position Reports

Time Latitude Longitude Heading Altitude Ground
Speed
04-May-18 16:57 36.080570 -115.140579 134 2120ft 0kts
04-May-18 16:58 36.080571 -115.140579 134 2120ft 0kts
04-May-18 16:59 36.080571 -115.140579 134 2120ft 0kts
04-May-18 17:00 36.080571 -115.140579 134 2120ft 0kts
04-May-18 17:01 36.080571 -115.140579 134 2120ft 0kts
04-May-18 17:02 36.080571 -115.140579 134 2120ft 0kts
04-May-18 17:03 36.080571 -115.140579 134 2120ft 0kts
04-May-18 17:04 36.080571 -115.140579 134 2120ft 0kts
04-May-18 17:05 36.080571 -115.140579 134 2120ft 0kts
04-May-18 17:06 36.080571 -115.140579 134 2120ft 0kts
04-May-18 17:07 36.080571 -115.140579 134 2120ft 0kts
04-May-18 17:08 36.080571 -115.140580 134 2120ft 0kts
04-May-18 17:08 36.080912 -115.141007 134 2120ft 2kts
04-May-18 17:09 36.081343 -115.141084 226 2121ft 1kts
04-May-18 17:11 36.081355 -115.141068 225 2120ft 0kts
04-May-18 17:12 36.080946 -115.141519 206 2120ft 5kts
04-May-18 17:13 36.078640 -115.141645 179 2120ft 8kts
04-May-18 17:14 36.078243 -115.137648 90 2120ft 17kts
04-May-18 17:14 36.078225 -115.132399 93 2120ft 19kts
04-May-18 17:15 36.078257 -115.125312 89 2121ft 21kts
04-May-18 17:16 36.076461 -115.121523 241 2121ft 14kts
04-May-18 17:17 36.076193 -115.158595 271 3004ft 187kts
04-May-18 17:18 36.075972 -115.233204 260 5327ft 267kts
04-May-18 17:19 36.014453 -115.283955 198 6868ft 285kts
04-May-18 17:20 35.938442 -115.306047 184 7381ft 287kts
04-May-18 17:21 35.858939 -115.314676 180 10555ft 305kts
04-May-18 17:22 35.766213 -115.304852 174 11909ft 375kts
04-May-18 17:23 35.657792 -115.295518 181 13955ft 401kts
04-May-18 17:24 35.544576 -115.300041 181 16113ft 416kts
04-May-18 17:25 35.427376 -115.304646 181 18075ft 429kts
04-May-18 17:26 35.310129 -115.309261 181 19221ft 434kts
04-May-18 17:27 35.189221 -115.314003 181 19167ft 436kts
04-May-18 17:28 35.067678 -115.318770 181 19738ft 444kts
04-May-18 17:29 34.943107 -115.323657 181 21354ft 454kts
04-May-18 17:30 34.831654 -115.327993 181 22651ft 463kts
04-May-18 17:31 34.706825 -115.363447 200 23664ft 478kts
04-May-18 17:32 34.580892 -115.418541 200 24906ft 485kts
04-May-18 17:33 34.453903 -115.473878 200 26037ft 490kts
04-May-18 17:34 34.326855 -115.530817 207 26255ft 486kts
04-May-18 17:35 34.210772 -115.612992 207 26255ft 487kts
04-May-18 17:36 34.094728 -115.669445 202 26245ft 487kts
04-May-18 17:37 33.982831 -115.722183 202 26118ft 487kts
04-May-18 17:38 33.861466 -115.780336 203 26042ft 487kts
04-May-18 17:39 33.736315 -115.841297 201 26061ft 488kts
04-May-18 17:40 33.609958 -115.900193 202 26070ft 489kts
04-May-18 17:41 33.496140 -115.980300 230 24440ft 472kts
04-May-18 17:42 33.421796 -116.105373 236 21976ft 455kts
04-May-18 17:43 33.350628 -116.226842 231 19496ft 441kts
04-May-18 17:44 33.249515 -116.301810 205 16931ft 428kts
04-May-18 17:45 33.144645 -116.362995 205 14510ft 411kts
04-May-18 17:46 33.046808 -116.420098 205 13199ft 369kts
04-May-18 17:47 32.966537 -116.483559 220 12001ft 338kts
04-May-18 17:48 32.898769 -116.551980 220 10387ft 327kts
04-May-18 17:49 32.832603 -116.618555 221 9320ft 302kts
04-May-18 17:50 32.771731 -116.683006 238 7924ft 292kts
04-May-18 17:51 32.732453 -116.765513 242 6551ft 284kts
04-May-18 17:52 32.699083 -116.845033 251 5809ft 254kts
04-May-18 17:53 32.676710 -116.918466 253 5031ft 231kts
04-May-18 17:54 32.682780 -116.993544 289 3785ft 237kts
04-May-18 17:55 32.702550 -117.063564 287 2661ft 209kts
04-May-18 17:56 32.717018 -117.122323 288 1644ft 166kts
04-May-18 17:57 32.728102 -117.167594 287 313ft 129kts
04-May-18 17:58 32.734348 -117.194605 249 22ft 17kts
04-May-18 17:59 32.734027 -117.195728 264 22ft 8kts
04-May-18 18:00 32.733999 -117.199937 251 21ft 9kts

Navigation Log

Ident Type
Flight plan parsing failed, navigation log unavailable